Historique des mesures à Cassis (13260), France
Quotidien Résumé Janvier 16, 2018 Unités:  US    Métrique   Métrique/US
« Précédent (Jour)
Suivant (Jour) »
Quotidien Hebdomadaire Mensuel Annuel Période au choix
  Maximum: Minimum: Moyenne:
Température: 32 °F 52.5 °F 54.7 °F
Point de rosée: 32 °F 43.9 °F 46.8 °F
Humidité: Humidity % 66 % 70 %
Vitesse du vent: WindSpeedKMH mph 0.0 mph 9 mph
Rafales: WindSpeedGustKMH mph - -
Vent:- - SW
Pression: 0 in 29.8 in -
Précipitations: 0 in    
Historical Graphs
 
 
Mesures pour : Janvier 16, 2018
Heure Temperature Point de rosée Pression Vent Vitesse du vent Rafales Humidité Pluie (par heure) Conditions
32 °F 32 °F 0 in Calm     Humidity % 0 in SoftwareType W/m2
00:12 53.2 °F 45.5 °F 30 in Calm   13.4 mph 75 % 0 in open2300-1.11 W/m2
01:12 53.4 °F 45.7 °F 30 in SW 15.8 mph 15.8 mph 75 % 0 in open2300-1.11 W/m2
02:12 53.8 °F 46.4 °F 30 in Calm   4.0 mph 76 % 0 in open2300-1.11 W/m2
03:12 53.6 °F 45.5 °F 29.9 in West 7.2 mph 7.2 mph 74 % 0 in open2300-1.11 W/m2
04:12 53.8 °F 43.9 °F 29.9 in WNW 6.4 mph 9.7 mph 69 % 0 in open2300-1.11 W/m2
05:12 54 °F 44.8 °F 29.9 in West 10.5 mph 10.5 mph 71 % 0 in open2300-1.11 W/m2
06:12 52.5 °F 45.5 °F 29.9 in West 2.9 mph 6.4 mph 77 % 0 in open2300-1.11 W/m2
07:12 52.7 °F 46.4 °F 29.9 in Calm   5.0 mph 79 % 0 in open2300-1.11 W/m2
08:12 54.1 °F 47.8 °F 29.9 in North 2.9 mph 10.8 mph 79 % 0 in open2300-1.11 W/m2
09:12 55 °F 48.2 °F 29.9 in Calm     78 % 0 in open2300-1.11 W/m2
10:12 55.8 °F 49.3 °F 29.9 in Calm   11.9 mph 79 % 0 in open2300-1.11 W/m2
11:12 57 °F 49.8 °F 29.9 in WNW 15.4 mph 30.6 mph 77 % 0 in open2300-1.11 W/m2
12:12 58.6 °F 50 °F 29.9 in West 14.3 mph 14.3 mph 73 % 0 in open2300-1.11 W/m2
14:12 59.7 °F 48.4 °F 29.8 in WNW 21.9 mph 43.1 mph 66 % 0 in open2300-1.11 W/m2
16:12 58.8 °F 49.1 °F 29.8 in WNW 3.5 mph 16.9 mph 70 % 0 in open2300-1.11 W/m2
18:12 57.4 °F 49.1 °F 29.8 in NNE 17.7 mph 17.7 mph 74 % 0 in open2300-1.11 W/m2
20:12 57.9 °F 48.9 °F 29.8 in North 10.5 mph 27.7 mph 72 % 0 in open2300-1.11 W/m2
21:12 58.1 °F 49.1 °F 29.8 in NW 16.9 mph 23.0 mph 72 % 0 in open2300-1.11 W/m2
22:12 58.3 °F 49.3 °F 29.8 in WNW 19.5 mph 19.5 mph 72 % 0 in open2300-1.11 W/m2
23:12 58.1 °F 48.7 °F 29.8 in WNW 23.0 mph 27.4 mph 71 % 0 in open2300-1.11 W/m2
Observations météo à CASSIS
WU-History script by Weather Underground - 1 mb